Seagoville's Hourly Summary for Friday, March 17, 2017
Hour Temp
(f)
RH
(%)
Solar Rad.
(MJ/m2)
Rainfall
(in)
Wind
(mph)
3/17/2017 12:00 AM 63 87 0 0 7.39
3/17/2017 1:00 AM 63 86 0 0 6.92
3/17/2017 2:00 AM 66 80 0 0 11.19
3/17/2017 3:00 AM 67 79 0 0 11.5
3/17/2017 4:00 AM 67 79 0 0 12.15
3/17/2017 5:00 AM 67 79 0 0 10.79
3/17/2017 6:00 AM 67 78 0 0 9.04
3/17/2017 7:00 AM 67 79 0.02 0 8.94
3/17/2017 8:00 AM 67 78 0.13 0 10.95
3/17/2017 9:00 AM 68 76 0.33 0 11.53
3/17/2017 10:00 AM 69 75 0.58 0 11.03
3/17/2017 11:00 AM 69 74 0.66 0 11.19
3/17/2017 12:00 PM 70 74 1.12 0 13
3/17/2017 1:00 PM 70 74 1.19 0 14.05
3/17/2017 2:00 PM 71 72 0.7 0 12.02
3/17/2017 3:00 PM 72 68 0.64 0 9.48
3/17/2017 4:00 PM 74 59 1.07 0 14.55
3/17/2017 5:00 PM 75 56 0.74 0 12.03
3/17/2017 6:00 PM 75 56 0.31 0 11.38
3/17/2017 7:00 PM 73 58 0.03 0 5.99
3/17/2017 8:00 PM 70 63 0 0 0.6
3/17/2017 9:00 PM 66 78 0 0 0.21
3/17/2017 10:00 PM 66 79 0 0 2
3/17/2017 11:00 PM 68 69 0 0 5.34
Data Summary 68 73 7.52 0.00 9.30